sensor_id;sensor_type;location;lat;lon;timestamp;pressure;altitude;pressure_sealevel;temperature;humidity
2711;BME280;20721;47.402;8.550;2023-03-21T00:00:38;96321;;;10.70;54.70
2711;BME280;20721;47.402;8.550;2023-03-21T00:01:37;96321;;;10.74;54.50
2711;BME280;20721;47.402;8.550;2023-03-21T00:02:38;96320;;;10.76;54.36
2711;BME280;20721;47.402;8.550;2023-03-21T00:03:38;96320;;;10.77;54.23
2711;BME280;20721;47.402;8.550;2023-03-21T00:04:48;96317;;;10.74;54.10
2711;BME280;20721;47.402;8.550;2023-03-21T00:05:39;96313;;;10.72;54.02
2711;BME280;20721;47.402;8.550;2023-03-21T00:06:37;96313;;;10.71;54.03
2711;BME280;20721;47.402;8.550;2023-03-21T00:07:37;96313;;;10.72;53.99
2711;BME280;20721;47.402;8.550;2023-03-21T00:08:38;96309;;;10.66;54.10
2711;BME280;20721;47.402;8.550;2023-03-21T00:09:37;96311;;;10.68;53.99
2711;BME280;20721;47.402;8.550;2023-03-21T00:10:44;96312;;;10.70;54.05
2711;BME280;20721;47.402;8.550;2023-03-21T00:14:38;96308;;;10.71;54.03
2711;BME280;20721;47.402;8.550;2023-03-21T00:15:53;96302;;;10.66;54.18
2711;BME280;20721;47.402;8.550;2023-03-21T00:16:40;96302;;;10.57;54.17
2711;BME280;20721;47.402;8.550;2023-03-21T00:17:38;96306;;;10.58;54.16
2711;BME280;20721;47.402;8.550;2023-03-21T00:18:41;96303;;;10.50;54.28
2711;BME280;20721;47.402;8.550;2023-03-21T00:19:37;96303;;;10.44;54.28
2711;BME280;20721;47.402;8.550;2023-03-21T00:21:51;96301;;;10.42;54.48
2711;BME280;20721;47.402;8.550;2023-03-21T00:22:37;96301;;;10.43;54.42
2711;BME280;20721;47.402;8.550;2023-03-21T00:23:37;96302;;;10.45;54.34
2711;BME280;20721;47.402;8.550;2023-03-21T00:25:38;96303;;;10.48;54.36
2711;BME280;20721;47.402;8.550;2023-03-21T00:26:37;96304;;;10.49;54.34
2711;BME280;20721;47.402;8.550;2023-03-21T00:28:38;96302;;;10.50;54.54
2711;BME280;20721;47.402;8.550;2023-03-21T00:29:37;96301;;;10.51;54.44
2711;BME280;20721;47.402;8.550;2023-03-21T00:30:38;96301;;;10.50;54.24
2711;BME280;20721;47.402;8.550;2023-03-21T00:31:37;96301;;;10.47;54.38
2711;BME280;20721;47.402;8.550;2023-03-21T00:32:47;96299;;;10.46;54.33
2711;BME280;20721;47.402;8.550;2023-03-21T00:37:37;96289;;;10.45;54.20
2711;BME280;20721;47.402;8.550;2023-03-21T00:38:37;96289;;;10.38;54.21
2711;BME280;20721;47.402;8.550;2023-03-21T00:39:37;96286;;;10.35;54.21
2711;BME280;20721;47.402;8.550;2023-03-21T00:40:47;96284;;;10.33;54.43
2711;BME280;20721;47.402;8.550;2023-03-21T00:41:43;96281;;;10.32;54.39
2711;BME280;20721;47.402;8.550;2023-03-21T00:42:37;96283;;;10.31;54.41
2711;BME280;20721;47.402;8.550;2023-03-21T00:43:39;96280;;;10.25;54.59
2711;BME280;20721;47.402;8.550;2023-03-21T00:44:39;96277;;;10.21;54.66
2711;BME280;20721;47.402;8.550;2023-03-21T00:45:38;96277;;;10.19;54.79
2711;BME280;20721;47.402;8.550;2023-03-21T00:47:37;96281;;;10.14;55.04
2711;BME280;20721;47.402;8.550;2023-03-21T00:48:38;96284;;;10.13;55.03
2711;BME280;20721;47.402;8.550;2023-03-21T00:49:38;96278;;;10.11;55.14
2711;BME280;20721;47.402;8.550;2023-03-21T00:51:37;96283;;;10.14;55.23
2711;BME280;20721;47.402;8.550;2023-03-21T00:52:41;96280;;;10.17;55.26
2711;BME280;20721;47.402;8.550;2023-03-21T00:53:37;96285;;;10.18;55.19
2711;BME280;20721;47.402;8.550;2023-03-21T00:54:37;96279;;;10.19;55.16
2711;BME280;20721;47.402;8.550;2023-03-21T00:55:38;96279;;;10.20;55.16
2711;BME280;20721;47.402;8.550;2023-03-21T00:56:38;96282;;;10.21;55.17
2711;BME280;20721;47.402;8.550;2023-03-21T00:58:37;96287;;;10.22;55.23
2711;BME280;20721;47.402;8.550;2023-03-21T00:59:38;96285;;;10.23;55.14
2711;BME280;20721;47.402;8.550;2023-03-21T01:00:38;96285;;;10.24;55.17
2711;BME280;20721;47.402;8.550;2023-03-21T01:04:37;96282;;;10.22;54.96
2711;BME280;20721;47.402;8.550;2023-03-21T01:05:48;96283;;;10.19;55.06
2711;BME280;20721;47.402;8.550;2023-03-21T01:06:40;96280;;;10.14;55.20
2711;BME280;20721;47.402;8.550;2023-03-21T01:07:37;96286;;;10.10;55.53
2711;BME280;20721;47.402;8.550;2023-03-21T01:08:47;96285;;;10.08;55.59
2711;BME280;20721;47.402;8.550;2023-03-21T01:09:37;96280;;;10.07;55.54
2711;BME280;20721;47.402;8.550;2023-03-21T01:10:38;96281;;;10.08;55.64
2711;BME280;20721;47.402;8.550;2023-03-21T01:13:44;96273;;;10.10;56.05
2711;BME280;20721;47.402;8.550;2023-03-21T01:14:37;96273;;;10.06;56.13
2711;BME280;20721;47.402;8.550;2023-03-21T01:15:42;96271;;;10.03;56.34
2711;BME280;20721;47.402;8.550;2023-03-21T01:16:38;96272;;;10.00;56.36
2711;BME280;20721;47.402;8.550;2023-03-21T01:17:37;96274;;;9.98;56.44
2711;BME280;20721;47.402;8.550;2023-03-21T01:18:38;96270;;;9.97;56.42
2711;BME280;20721;47.402;8.550;2023-03-21T01:19:47;96272;;;9.95;56.49
2711;BME280;20721;47.402;8.550;2023-03-21T01:20:39;96267;;;9.90;56.35
2711;BME280;20721;47.402;8.550;2023-03-21T01:21:38;96267;;;9.87;56.51
2711;BME280;20721;47.402;8.550;2023-03-21T01:22:38;96268;;;9.84;56.54
2711;BME280;20721;47.402;8.550;2023-03-21T01:25:38;96266;;;9.87;56.03
2711;BME280;20721;47.402;8.550;2023-03-21T01:26:37;96264;;;9.89;56.00
2711;BME280;20721;47.402;8.550;2023-03-21T01:27:37;96263;;;9.91;55.95
2711;BME280;20721;47.402;8.550;2023-03-21T01:28:39;96259;;;9.96;55.87
2711;BME280;20721;47.402;8.550;2023-03-21T01:29:37;96260;;;9.99;55.84
2711;BME280;20721;47.402;8.550;2023-03-21T01:31:38;96260;;;10.02;55.87
2711;BME280;20721;47.402;8.550;2023-03-21T01:33:38;96258;;;10.04;55.75
2711;BME280;20721;47.402;8.550;2023-03-21T01:35:48;96262;;;10.05;55.72
2711;BME280;20721;47.402;8.550;2023-03-21T01:37:37;96262;;;10.03;55.68
2711;BME280;20721;47.402;8.550;2023-03-21T01:38:38;96257;;;10.02;55.70
2711;BME280;20721;47.402;8.550;2023-03-21T01:39:37;96256;;;10.00;55.77
2711;BME280;20721;47.402;8.550;2023-03-21T01:40:38;96258;;;9.97;55.83
2711;BME280;20721;47.402;8.550;2023-03-21T01:41:44;96257;;;9.92;56.01
2711;BME280;20721;47.402;8.550;2023-03-21T01:42:38;96258;;;9.82;56.16
2711;BME280;20721;47.402;8.550;2023-03-21T01:43:39;96253;;;9.71;56.35
2711;BME280;20721;47.402;8.550;2023-03-21T01:44:57;96255;;;9.54;56.59
2711;BME280;20721;47.402;8.550;2023-03-21T01:46:49;96257;;;9.10;57.78
2711;BME280;20721;47.402;8.550;2023-03-21T01:47:38;96255;;;9.00;58.10
2711;BME280;20721;47.402;8.550;2023-03-21T01:48:38;96254;;;8.99;58.30
2711;BME280;20721;47.402;8.550;2023-03-21T01:49:40;96250;;;9.04;58.17
2711;BME280;20721;47.402;8.550;2023-03-21T01:50:37;96250;;;9.10;58.04
2711;BME280;20721;47.402;8.550;2023-03-21T01:51:39;96251;;;9.15;57.96
2711;BME280;20721;47.402;8.550;2023-03-21T01:52:40;96245;;;9.20;57.72
2711;BME280;20721;47.402;8.550;2023-03-21T01:53:38;96250;;;9.24;57.65
2711;BME280;20721;47.402;8.550;2023-03-21T01:54:38;96244;;;9.25;57.58
2711;BME280;20721;47.402;8.550;2023-03-21T01:55:38;96249;;;9.31;57.40
2711;BME280;20721;47.402;8.550;2023-03-21T01:56:38;96247;;;9.34;57.30
2711;BME280;20721;47.402;8.550;2023-03-21T01:57:46;96248;;;9.37;57.26
2711;BME280;20721;47.402;8.550;2023-03-21T01:58:38;96249;;;9.42;57.14
2711;BME280;20721;47.402;8.550;2023-03-21T01:59:46;96249;;;9.45;57.02
2711;BME280;20721;47.402;8.550;2023-03-21T02:00:37;96248;;;9.49;56.92
2711;BME280;20721;47.402;8.550;2023-03-21T02:01:41;96246;;;9.53;56.84
2711;BME280;20721;47.402;8.550;2023-03-21T02:02:42;96248;;;9.56;56.88
2711;BME280;20721;47.402;8.550;2023-03-21T02:03:48;96247;;;9.59;56.80
2711;BME280;20721;47.402;8.550;2023-03-21T02:04:38;96249;;;9.62;56.72
2711;BME280;20721;47.402;8.550;2023-03-21T02:05:42;96250;;;9.66;56.65
2711;BME280;20721;47.402;8.550;2023-03-21T02:07:40;96251;;;9.69;56.60
2711;BME280;20721;47.402;8.550;2023-03-21T02:08:40;96250;;;9.70;56.45
2711;BME280;20721;47.402;8.550;2023-03-21T02:09:40;96251;;;9.69;56.44
2711;BME280;20721;47.402;8.550;2023-03-21T02:11:38;96247;;;9.68;56.31
2711;BME280;20721;47.402;8.550;2023-03-21T02:12:38;96247;;;9.66;56.35
2711;BME280;20721;47.402;8.550;2023-03-21T02:13:38;96243;;;9.65;56.31
2711;BME280;20721;47.402;8.550;2023-03-21T02:14:38;96241;;;9.61;56.49
2711;BME280;20721;47.402;8.550;2023-03-21T02:15:40;96239;;;9.55;56.59
2711;BME280;20721;47.402;8.550;2023-03-21T02:18:42;96235;;;9.33;57.15
2711;BME280;20721;47.402;8.550;2023-03-21T02:24:44;96234;;;9.34;57.11
2711;BME280;20721;47.402;8.550;2023-03-21T02:26:50;96233;;;9.38;56.98
2711;BME280;20721;47.402;8.550;2023-03-21T02:27:40;96231;;;9.39;57.05
2711;BME280;20721;47.402;8.550;2023-03-21T02:29:46;96230;;;9.40;56.83
2711;BME280;20721;47.402;8.550;2023-03-21T02:36:54;96224;;;9.39;57.03
2711;BME280;20721;47.402;8.550;2023-03-21T02:37:40;96222;;;9.38;57.03
2711;BME280;20721;47.402;8.550;2023-03-21T02:43:40;96225;;;9.37;57.15
2711;BME280;20721;47.402;8.550;2023-03-21T02:44:42;96224;;;9.36;57.18
2711;BME280;20721;47.402;8.550;2023-03-21T02:46:49;96228;;;9.33;57.12
2711;BME280;20721;47.402;8.550;2023-03-21T02:47:40;96227;;;9.31;57.11
2711;BME280;20721;47.402;8.550;2023-03-21T02:48:53;96229;;;9.28;57.08
2711;BME280;20721;47.402;8.550;2023-03-21T02:49:48;96229;;;9.25;57.09
2711;BME280;20721;47.402;8.550;2023-03-21T02:50:41;96230;;;9.23;57.18
2711;BME280;20721;47.402;8.550;2023-03-21T02:51:38;96229;;;9.19;57.24
2711;BME280;20721;47.402;8.550;2023-03-21T02:52:41;96228;;;9.15;57.37
2711;BME280;20721;47.402;8.550;2023-03-21T02:53:39;96229;;;9.13;57.56
2711;BME280;20721;47.402;8.550;2023-03-21T02:55:38;96227;;;9.12;57.60
2711;BME280;20721;47.402;8.550;2023-03-21T02:56:39;96230;;;9.13;57.58
2711;BME280;20721;47.402;8.550;2023-03-21T02:57:44;96230;;;9.12;57.64
2711;BME280;20721;47.402;8.550;2023-03-21T02:58:38;96229;;;9.11;57.58
2711;BME280;20721;47.402;8.550;2023-03-21T02:59:48;96229;;;9.12;57.55
2711;BME280;20721;47.402;8.550;2023-03-21T03:00:38;96232;;;9.14;57.58
2711;BME280;20721;47.402;8.550;2023-03-21T03:02:39;96225;;;9.15;57.55
2711;BME280;20721;47.402;8.550;2023-03-21T03:03:38;96225;;;9.16;57.44
2711;BME280;20721;47.402;8.550;2023-03-21T03:04:38;96223;;;9.15;57.34
2711;BME280;20721;47.402;8.550;2023-03-21T03:05:41;96221;;;9.13;57.38
2711;BME280;20721;47.402;8.550;2023-03-21T03:06:42;96218;;;9.14;57.38
2711;BME280;20721;47.402;8.550;2023-03-21T03:07:39;96219;;;9.11;57.48
2711;BME280;20721;47.402;8.550;2023-03-21T03:08:52;96220;;;9.12;57.55
2711;BME280;20721;47.402;8.550;2023-03-21T03:10:42;96220;;;9.15;57.46
2711;BME280;20721;47.402;8.550;2023-03-21T03:11:40;96220;;;9.17;57.41
2711;BME280;20721;47.402;8.550;2023-03-21T03:16:39;96222;;;9.04;57.60
2711;BME280;20721;47.402;8.550;2023-03-21T03:18:41;96222;;;8.96;57.83
2711;BME280;20721;47.402;8.550;2023-03-21T03:21:41;96218;;;8.91;58.27
2711;BME280;20721;47.402;8.550;2023-03-21T03:22:40;96218;;;8.92;58.34
2711;BME280;20721;47.402;8.550;2023-03-21T03:24:45;96216;;;8.96;58.19
2711;BME280;20721;47.402;8.550;2023-03-21T03:26:38;96214;;;8.99;58.12
2711;BME280;20721;47.402;8.550;2023-03-21T03:27:39;96213;;;9.01;57.96
2711;BME280;20721;47.402;8.550;2023-03-21T03:29:39;96216;;;9.00;57.96
2711;BME280;20721;47.402;8.550;2023-03-21T03:34:39;96214;;;9.01;57.98
2711;BME280;20721;47.402;8.550;2023-03-21T03:35:38;96214;;;9.02;58.01
2711;BME280;20721;47.402;8.550;2023-03-21T03:36:41;96212;;;9.01;58.00
2711;BME280;20721;47.402;8.550;2023-03-21T03:37:38;96217;;;9.00;58.00
2711;BME280;20721;47.402;8.550;2023-03-21T03:38:38;96215;;;8.99;58.06
2711;BME280;20721;47.402;8.550;2023-03-21T03:41:50;96218;;;8.96;57.89
2711;BME280;20721;47.402;8.550;2023-03-21T03:43:39;96224;;;8.93;58.00
2711;BME280;20721;47.402;8.550;2023-03-21T03:44:38;96222;;;8.91;58.02
2711;BME280;20721;47.402;8.550;2023-03-21T03:46:55;96225;;;8.90;57.93
2711;BME280;20721;47.402;8.550;2023-03-21T03:48:47;96227;;;8.89;58.12
2711;BME280;20721;47.402;8.550;2023-03-21T03:49:42;96228;;;8.85;58.29
2711;BME280;20721;47.402;8.550;2023-03-21T03:51:49;96227;;;8.83;58.35
2711;BME280;20721;47.402;8.550;2023-03-21T03:52:48;96227;;;8.82;58.27
2711;BME280;20721;47.402;8.550;2023-03-21T03:53:40;96225;;;8.79;58.35
2711;BME280;20721;47.402;8.550;2023-03-21T03:54:39;96222;;;8.75;58.47
2711;BME280;20721;47.402;8.550;2023-03-21T03:55:38;96224;;;8.74;58.60
2711;BME280;20721;47.402;8.550;2023-03-21T03:56:38;96221;;;8.77;58.60
2711;BME280;20721;47.402;8.550;2023-03-21T03:58:46;96221;;;8.78;58.63
2711;BME280;20721;47.402;8.550;2023-03-21T03:59:39;96219;;;8.75;58.82
2711;BME280;20721;47.402;8.550;2023-03-21T04:00:38;96220;;;8.71;58.96
2711;BME280;20721;47.402;8.550;2023-03-21T04:01:38;96220;;;8.67;59.31
2711;BME280;20721;47.402;8.550;2023-03-21T04:02:38;96218;;;8.66;59.40
2711;BME280;20721;47.402;8.550;2023-03-21T04:03:48;96218;;;8.65;59.63
2711;BME280;20721;47.402;8.550;2023-03-21T04:04:38;96217;;;8.64;59.72
2711;BME280;20721;47.402;8.550;2023-03-21T04:05:38;96216;;;8.61;59.64
2711;BME280;20721;47.402;8.550;2023-03-21T04:07:38;96220;;;8.62;59.71
2711;BME280;20721;47.402;8.550;2023-03-21T04:08:38;96218;;;8.66;59.62
2711;BME280;20721;47.402;8.550;2023-03-21T04:09:44;96220;;;8.68;59.63
2711;BME280;20721;47.402;8.550;2023-03-21T04:11:38;96218;;;8.70;59.51
2711;BME280;20721;47.402;8.550;2023-03-21T04:14:46;96219;;;8.72;59.47
2711;BME280;20721;47.402;8.550;2023-03-21T04:15:38;96220;;;8.74;59.32
2711;BME280;20721;47.402;8.550;2023-03-21T04:16:38;96218;;;8.76;59.30
2711;BME280;20721;47.402;8.550;2023-03-21T04:17:39;96217;;;8.79;59.34
2711;BME280;20721;47.402;8.550;2023-03-21T04:21:38;96213;;;8.77;58.67
2711;BME280;20721;47.402;8.550;2023-03-21T04:23:39;96214;;;8.76;58.87
2711;BME280;20721;47.402;8.550;2023-03-21T04:24:38;96217;;;8.74;58.98
2711;BME280;20721;47.402;8.550;2023-03-21T04:25:49;96215;;;8.72;58.90
2711;BME280;20721;47.402;8.550;2023-03-21T04:26:38;96215;;;8.74;58.92
2711;BME280;20721;47.402;8.550;2023-03-21T04:27:38;96214;;;8.73;58.88
2711;BME280;20721;47.402;8.550;2023-03-21T04:28:38;96217;;;8.72;58.92
2711;BME280;20721;47.402;8.550;2023-03-21T04:29:38;96218;;;8.73;58.90
2711;BME280;20721;47.402;8.550;2023-03-21T04:31:40;96216;;;8.71;58.89
2711;BME280;20721;47.402;8.550;2023-03-21T04:32:39;96219;;;8.68;58.88
2711;BME280;20721;47.402;8.550;2023-03-21T04:33:38;96219;;;8.65;58.95
2711;BME280;20721;47.402;8.550;2023-03-21T04:34:39;96216;;;8.64;58.96
2711;BME280;20721;47.402;8.550;2023-03-21T04:35:38;96218;;;8.63;58.99
2711;BME280;20721;47.402;8.550;2023-03-21T04:36:41;96218;;;8.64;58.88
2711;BME280;20721;47.402;8.550;2023-03-21T04:38:38;96215;;;8.63;58.79
2711;BME280;20721;47.402;8.550;2023-03-21T04:39:38;96215;;;8.60;58.86
2711;BME280;20721;47.402;8.550;2023-03-21T04:40:39;96211;;;8.61;58.84
2711;BME280;20721;47.402;8.550;2023-03-21T04:41:39;96214;;;8.60;59.00
2711;BME280;20721;47.402;8.550;2023-03-21T04:44:38;96216;;;8.59;60.11
2711;BME280;20721;47.402;8.550;2023-03-21T04:46:38;96218;;;8.60;59.87
2711;BME280;20721;47.402;8.550;2023-03-21T04:47:38;96216;;;8.58;60.15
2711;BME280;20721;47.402;8.550;2023-03-21T04:49:38;96216;;;8.56;60.48
2711;BME280;20721;47.402;8.550;2023-03-21T04:50:38;96216;;;8.55;60.79
2711;BME280;20721;47.402;8.550;2023-03-21T04:51:38;96216;;;8.56;60.64
2711;BME280;20721;47.402;8.550;2023-03-21T04:52:38;96217;;;8.55;60.71
2711;BME280;20721;47.402;8.550;2023-03-21T04:54:38;96217;;;8.56;60.82
2711;BME280;20721;47.402;8.550;2023-03-21T04:56:38;96214;;;8.54;60.04
2711;BME280;20721;47.402;8.550;2023-03-21T04:57:38;96214;;;8.52;59.71
2711;BME280;20721;47.402;8.550;2023-03-21T04:58:40;96212;;;8.53;59.64
2711;BME280;20721;47.402;8.550;2023-03-21T05:00:39;96209;;;8.52;59.40
2711;BME280;20721;47.402;8.550;2023-03-21T05:01:40;96211;;;8.51;59.40
2711;BME280;20721;47.402;8.550;2023-03-21T05:02:38;96213;;;8.55;59.23
2711;BME280;20721;47.402;8.550;2023-03-21T05:03:39;96208;;;8.53;59.21
2711;BME280;20721;47.402;8.550;2023-03-21T05:04:38;96208;;;8.50;59.36
2711;BME280;20721;47.402;8.550;2023-03-21T05:05:39;96209;;;8.47;59.35
2711;BME280;20721;47.402;8.550;2023-03-21T05:06:38;96205;;;8.50;59.11
2711;BME280;20721;47.402;8.550;2023-03-21T05:07:39;96204;;;8.51;59.06
2711;BME280;20721;47.402;8.550;2023-03-21T05:08:38;96207;;;8.52;59.07
2711;BME280;20721;47.402;8.550;2023-03-21T05:11:39;96209;;;8.49;59.39
2711;BME280;20721;47.402;8.550;2023-03-21T05:12:38;96206;;;8.45;59.40
2711;BME280;20721;47.402;8.550;2023-03-21T05:13:38;96207;;;8.40;59.47
2711;BME280;20721;47.402;8.550;2023-03-21T05:14:38;96206;;;8.38;59.66
2711;BME280;20721;47.402;8.550;2023-03-21T05:17:41;96205;;;8.36;59.78
2711;BME280;20721;47.402;8.550;2023-03-21T05:18:38;96204;;;8.32;59.86
2711;BME280;20721;47.402;8.550;2023-03-21T05:19:39;96203;;;8.30;59.85
2711;BME280;20721;47.402;8.550;2023-03-21T05:20:41;96202;;;8.28;59.93
2711;BME280;20721;47.402;8.550;2023-03-21T05:21:40;96200;;;8.27;59.93
2711;BME280;20721;47.402;8.550;2023-03-21T05:22:39;96197;;;8.25;59.82
2711;BME280;20721;47.402;8.550;2023-03-21T05:23:38;96201;;;8.24;59.81
2711;BME280;20721;47.402;8.550;2023-03-21T05:24:40;96201;;;8.25;59.82
2711;BME280;20721;47.402;8.550;2023-03-21T05:26:38;96204;;;8.27;59.68
2711;BME280;20721;47.402;8.550;2023-03-21T05:29:38;96204;;;8.28;59.58
2711;BME280;20721;47.402;8.550;2023-03-21T05:30:38;96205;;;8.27;59.60
2711;BME280;20721;47.402;8.550;2023-03-21T05:33:38;96207;;;8.25;59.46
2711;BME280;20721;47.402;8.550;2023-03-21T05:34:38;96209;;;8.26;59.53
2711;BME280;20721;47.402;8.550;2023-03-21T05:35:39;96207;;;8.25;59.53
2711;BME280;20721;47.402;8.550;2023-03-21T05:38:41;96205;;;8.26;59.57
2711;BME280;20721;47.402;8.550;2023-03-21T05:39:38;96206;;;8.25;59.52
2711;BME280;20721;47.402;8.550;2023-03-21T05:40:38;96204;;;8.23;59.53
2711;BME280;20721;47.402;8.550;2023-03-21T05:41:38;96200;;;8.25;59.56
2711;BME280;20721;47.402;8.550;2023-03-21T05:43:38;96202;;;8.24;59.53
2711;BME280;20721;47.402;8.550;2023-03-21T05:44:39;96205;;;8.22;59.58
2711;BME280;20721;47.402;8.550;2023-03-21T05:45:39;96210;;;8.24;59.60
2711;BME280;20721;47.402;8.550;2023-03-21T05:46:39;96210;;;8.26;59.63
2711;BME280;20721;47.402;8.550;2023-03-21T05:47:38;96210;;;8.27;59.72
2711;BME280;20721;47.402;8.550;2023-03-21T05:48:38;96212;;;8.29;59.73
2711;BME280;20721;47.402;8.550;2023-03-21T05:49:38;96215;;;8.32;59.64
2711;BME280;20721;47.402;8.550;2023-03-21T05:50:38;96216;;;8.35;59.53
2711;BME280;20721;47.402;8.550;2023-03-21T05:53:38;96217;;;8.36;59.53
2711;BME280;20721;47.402;8.550;2023-03-21T05:54:38;96218;;;8.38;59.45
2711;BME280;20721;47.402;8.550;2023-03-21T05:55:39;96218;;;8.40;59.44
2711;BME280;20721;47.402;8.550;2023-03-21T05:56:38;96221;;;8.43;59.28
2711;BME280;20721;47.402;8.550;2023-03-21T05:58:38;96220;;;8.41;59.28
2711;BME280;20721;47.402;8.550;2023-03-21T05:59:38;96218;;;8.42;59.33
2711;BME280;20721;47.402;8.550;2023-03-21T06:00:38;96219;;;8.43;59.35
2711;BME280;20721;47.402;8.550;2023-03-21T06:02:38;96219;;;8.42;59.53
2711;BME280;20721;47.402;8.550;2023-03-21T06:04:38;96219;;;8.41;59.62
2711;BME280;20721;47.402;8.550;2023-03-21T06:06:38;96219;;;8.40;59.64
2711;BME280;20721;47.402;8.550;2023-03-21T06:07:39;96215;;;8.42;59.63
2711;BME280;20721;47.402;8.550;2023-03-21T06:08:38;96218;;;8.46;59.59
2711;BME280;20721;47.402;8.550;2023-03-21T06:09:38;96215;;;8.51;59.50
2711;BME280;20721;47.402;8.550;2023-03-21T06:10:38;96214;;;8.55;59.42
2711;BME280;20721;47.402;8.550;2023-03-21T06:11:39;96213;;;8.60;59.44
2711;BME280;20721;47.402;8.550;2023-03-21T06:12:38;96216;;;8.65;59.33
2711;BME280;20721;47.402;8.550;2023-03-21T06:14:38;96214;;;8.64;59.32
2711;BME280;20721;47.402;8.550;2023-03-21T06:15:39;96216;;;8.71;59.42
2711;BME280;20721;47.402;8.550;2023-03-21T06:16:38;96216;;;8.79;59.35
2711;BME280;20721;47.402;8.550;2023-03-21T06:17:38;96213;;;8.89;59.25
2711;BME280;20721;47.402;8.550;2023-03-21T06:18:38;96214;;;9.01;59.07
2711;BME280;20721;47.402;8.550;2023-03-21T06:19:38;96215;;;9.14;58.83
2711;BME280;20721;47.402;8.550;2023-03-21T06:20:38;96212;;;9.26;58.76
2711;BME280;20721;47.402;8.550;2023-03-21T06:21:38;96214;;;9.37;58.68
2711;BME280;20721;47.402;8.550;2023-03-21T06:22:38;96214;;;9.43;58.42
2711;BME280;20721;47.402;8.550;2023-03-21T06:23:38;96217;;;9.42;58.14
2711;BME280;20721;47.402;8.550;2023-03-21T06:24:38;96210;;;9.36;58.33
2711;BME280;20721;47.402;8.550;2023-03-21T06:25:38;96215;;;9.37;58.54
2711;BME280;20721;47.402;8.550;2023-03-21T06:26:38;96214;;;9.43;58.38
2711;BME280;20721;47.402;8.550;2023-03-21T06:27:38;96216;;;9.52;58.18
2711;BME280;20721;47.402;8.550;2023-03-21T06:28:38;96215;;;9.68;58.16
2711;BME280;20721;47.402;8.550;2023-03-21T06:29:38;96217;;;9.89;57.74
2711;BME280;20721;47.402;8.550;2023-03-21T06:30:38;96218;;;10.14;57.31
2711;BME280;20721;47.402;8.550;2023-03-21T06:31:38;96217;;;10.43;56.61
2711;BME280;20721;47.402;8.550;2023-03-21T06:32:38;96216;;;10.72;55.75
2711;BME280;20721;47.402;8.550;2023-03-21T06:33:38;96221;;;11.05;54.93
2711;BME280;20721;47.402;8.550;2023-03-21T06:34:39;96220;;;11.44;54.03
2711;BME280;20721;47.402;8.550;2023-03-21T06:35:39;96219;;;11.98;52.85
2711;BME280;20721;47.402;8.550;2023-03-21T06:36:38;96222;;;12.76;51.00
2711;BME280;20721;47.402;8.550;2023-03-21T06:37:38;96221;;;13.61;48.85
2711;BME280;20721;47.402;8.550;2023-03-21T06:38:38;96226;;;14.40;47.34
2711;BME280;20721;47.402;8.550;2023-03-21T06:39:39;96225;;;15.08;45.46
2711;BME280;20721;47.402;8.550;2023-03-21T06:40:39;96229;;;15.66;44.71
2711;BME280;20721;47.402;8.550;2023-03-21T06:41:39;96227;;;16.04;43.38
2711;BME280;20721;47.402;8.550;2023-03-21T06:42:38;96231;;;16.22;43.23
2711;BME280;20721;47.402;8.550;2023-03-21T06:43:38;96230;;;16.67;41.98
2711;BME280;20721;47.402;8.550;2023-03-21T06:44:38;96232;;;17.22;40.89
2711;BME280;20721;47.402;8.550;2023-03-21T06:45:39;96234;;;17.90;39.78
2711;BME280;20721;47.402;8.550;2023-03-21T06:46:38;96235;;;18.61;38.36
2711;BME280;20721;47.402;8.550;2023-03-21T06:47:38;96235;;;19.18;37.56
2711;BME280;20721;47.402;8.550;2023-03-21T06:48:43;96232;;;19.60;36.82
2711;BME280;20721;47.402;8.550;2023-03-21T06:49:39;96236;;;20.15;35.90
2711;BME280;20721;47.402;8.550;2023-03-21T06:50:39;96238;;;20.65;35.11
2711;BME280;20721;47.402;8.550;2023-03-21T06:51:38;96237;;;21.17;34.15
2711;BME280;20721;47.402;8.550;2023-03-21T06:52:38;96235;;;21.58;33.42
2711;BME280;20721;47.402;8.550;2023-03-21T06:53:40;96238;;;22.10;32.64
2711;BME280;20721;47.402;8.550;2023-03-21T06:54:38;96235;;;22.62;32.24
2711;BME280;20721;47.402;8.550;2023-03-21T06:55:39;96238;;;23.24;31.38
2711;BME280;20721;47.402;8.550;2023-03-21T06:56:39;96236;;;23.84;30.28
2711;BME280;20721;47.402;8.550;2023-03-21T06:57:38;96235;;;24.40;29.71
2711;BME280;20721;47.402;8.550;2023-03-21T06:58:39;96234;;;24.90;28.40
2711;BME280;20721;47.402;8.550;2023-03-21T06:59:40;96228;;;25.37;27.79
2711;BME280;20721;47.402;8.550;2023-03-21T07:00:38;96231;;;25.66;27.25
2711;BME280;20721;47.402;8.550;2023-03-21T07:01:38;96230;;;26.17;26.85
2711;BME280;20721;47.402;8.550;2023-03-21T07:02:38;96226;;;26.61;26.49
2711;BME280;20721;47.402;8.550;2023-03-21T07:03:39;96228;;;27.05;25.77
2711;BME280;20721;47.402;8.550;2023-03-21T07:04:38;96227;;;27.44;25.29
2711;BME280;20721;47.402;8.550;2023-03-21T07:05:39;96225;;;27.84;24.66
2711;BME280;20721;47.402;8.550;2023-03-21T07:06:38;96225;;;27.59;24.28
2711;BME280;20721;47.402;8.550;2023-03-21T07:07:39;96226;;;27.45;24.90
2711;BME280;20721;47.402;8.550;2023-03-21T07:08:39;96222;;;27.46;24.28
2711;BME280;20721;47.402;8.550;2023-03-21T07:09:39;96225;;;27.15;24.47
2711;BME280;20721;47.402;8.550;2023-03-21T07:10:39;96231;;;27.24;24.83
2711;BME280;20721;47.402;8.550;2023-03-21T07:11:38;96226;;;26.93;25.07
2711;BME280;20721;47.402;8.550;2023-03-21T07:12:38;96227;;;27.04;25.21
2711;BME280;20721;47.402;8.550;2023-03-21T07:13:38;96227;;;26.95;24.95
2711;BME280;20721;47.402;8.550;2023-03-21T07:14:38;96230;;;27.24;24.89
2711;BME280;20721;47.402;8.550;2023-03-21T07:15:40;96228;;;27.68;24.48
2711;BME280;20721;47.402;8.550;2023-03-21T07:16:38;96227;;;27.95;23.71
2711;BME280;20721;47.402;8.550;2023-03-21T07:17:38;96228;;;28.32;23.77
2711;BME280;20721;47.402;8.550;2023-03-21T07:18:38;96222;;;27.77;24.18
2711;BME280;20721;47.402;8.550;2023-03-21T07:20:38;96229;;;28.37;23.63
2711;BME280;20721;47.402;8.550;2023-03-21T07:21:38;96229;;;28.75;23.12
2711;BME280;20721;47.402;8.550;2023-03-21T07:23:39;96224;;;28.07;23.54
2711;BME280;20721;47.402;8.550;2023-03-21T07:24:38;96226;;;27.29;24.10
2711;BME280;20721;47.402;8.550;2023-03-21T07:25:39;96226;;;26.69;24.74
2711;BME280;20721;47.402;8.550;2023-03-21T07:26:38;96224;;;26.55;25.01
2711;BME280;20721;47.402;8.550;2023-03-21T07:27:41;96227;;;27.04;24.67
2711;BME280;20721;47.402;8.550;2023-03-21T07:28:38;96225;;;27.52;24.23